createdAt,value
2023-04-13T00:01:11.459Z,2.08
2023-04-13T00:03:39.707Z,4.57
2023-04-13T00:06:10.649Z,3.45
2023-04-13T00:08:37.523Z,2.33
2023-04-13T00:11:05.677Z,4.75
2023-04-13T00:13:37.286Z,2.78
2023-04-13T00:16:05.851Z,3.80
2023-04-13T00:18:32.613Z,3.58
2023-04-13T00:21:00.133Z,3.47
2023-04-13T00:23:27.106Z,4.60
2023-04-13T00:25:53.793Z,2.45
2023-04-13T00:28:20.539Z,2.55
2023-04-13T00:30:47.340Z,3.05
2023-04-13T00:33:14.168Z,2.38
2023-04-13T00:35:41.628Z,3.63
2023-04-13T00:38:08.851Z,4.70
2023-04-13T00:40:37.830Z,2.70
2023-04-13T00:43:05.709Z,1.80
2023-04-13T00:45:38.894Z,5.20
2023-04-13T00:48:09.578Z,5.05
2023-04-13T00:50:36.970Z,4.10
2023-04-13T00:53:09.578Z,7.03
2023-04-13T00:55:39.469Z,5.55
2023-04-13T00:58:06.582Z,6.45
2023-04-13T01:00:33.495Z,9.38
2023-04-13T01:03:01.698Z,5.65
2023-04-13T01:05:35.652Z,9.07
2023-04-13T01:08:09.217Z,5.45
2023-04-13T01:10:48.029Z,3.63
2023-04-13T01:13:29.191Z,6.32
2023-04-13T01:16:05.062Z,5.95
2023-04-13T01:18:37.953Z,8.45
2023-04-13T01:21:05.660Z,7.90
2023-04-13T01:23:35.409Z,4.95
2023-04-13T01:26:08.760Z,7.18
2023-04-13T01:28:38.522Z,6.82
2023-04-13T01:31:11.555Z,11.10
2023-04-13T01:33:42.254Z,10.95
2023-04-13T01:36:11.250Z,13.23
2023-04-13T01:38:38.065Z,9.88
2023-04-13T01:41:04.943Z,9.63
2023-04-13T01:43:32.237Z,15.32
2023-04-13T01:46:14.022Z,8.00
2023-04-13T01:51:25.101Z,7.30
2023-04-13T01:54:07.799Z,15.02
2023-04-13T01:56:35.819Z,9.27
2023-04-13T01:59:03.101Z,5.30
2023-04-13T02:01:29.788Z,8.95
2023-04-13T02:03:57.075Z,15.73
2023-04-13T02:06:24.653Z,11.52
2023-04-13T02:08:52.651Z,9.90
2023-04-13T02:11:19.651Z,8.07
2023-04-13T02:13:47.382Z,5.93
2023-04-13T02:16:14.130Z,5.43
2023-04-13T02:18:41.662Z,6.35
2023-04-13T02:21:12.183Z,8.48
2023-04-13T02:23:41.320Z,6.90
2023-04-13T02:26:19.480Z,10.10
2023-04-13T02:28:46.458Z,8.15
2023-04-13T02:31:17.177Z,7.95
2023-04-13T02:33:44.698Z,8.75
2023-04-13T02:36:11.906Z,8.52
2023-04-13T02:38:38.795Z,6.10
2023-04-13T02:41:06.622Z,9.68
2023-04-13T02:43:34.416Z,7.07
2023-04-13T02:46:01.305Z,8.43
2023-04-13T02:48:28.280Z,8.00
2023-04-13T02:50:55.647Z,7.78
2023-04-13T02:53:22.313Z,6.97
2023-04-13T02:55:50.515Z,8.05
2023-04-13T02:58:17.452Z,8.75
2023-04-13T03:00:44.650Z,11.80
2023-04-13T03:03:11.549Z,9.45
2023-04-13T03:05:38.748Z,9.18
2023-04-13T03:08:05.787Z,14.77
2023-04-13T03:10:32.601Z,4.70
2023-04-13T03:12:59.880Z,8.00
2023-04-13T03:15:26.666Z,10.20
2023-04-13T03:17:53.431Z,8.68
2023-04-13T03:20:21.280Z,9.60
2023-04-13T03:22:47.990Z,4.13
2023-04-13T03:25:14.659Z,8.45
2023-04-13T03:27:41.377Z,11.95
2023-04-13T03:30:08.893Z,12.38
2023-04-13T03:32:35.833Z,7.15
2023-04-13T03:35:02.582Z,6.72
2023-04-13T03:37:32.393Z,10.20
2023-04-13T03:39:59.309Z,11.45
2023-04-13T03:42:26.198Z,12.05
2023-04-13T03:44:53.110Z,8.18
2023-04-13T03:47:20.075Z,5.93
2023-04-13T03:49:47.116Z,9.82
2023-04-13T03:52:14.124Z,7.88
2023-04-13T03:54:40.836Z,8.77
2023-04-13T03:57:07.697Z,6.97
2023-04-13T03:59:34.561Z,7.80
2023-04-13T04:02:02.953Z,8.35
2023-04-13T04:04:30.215Z,9.38
2023-04-13T04:06:58.063Z,8.32
2023-04-13T04:09:25.646Z,7.40
2023-04-13T04:11:52.395Z,7.72
2023-04-13T04:14:20.393Z,7.45
2023-04-13T04:16:47.343Z,8.38
2023-04-13T04:19:14.322Z,7.07
2023-04-13T04:21:46.794Z,9.05
2023-04-13T04:24:23.496Z,8.15
2023-04-13T04:26:50.492Z,4.50
2023-04-13T04:29:17.867Z,10.07
2023-04-13T04:31:44.666Z,9.38
2023-04-13T04:34:11.874Z,4.20
2023-04-13T04:36:41.578Z,5.18
2023-04-13T04:39:09.845Z,6.75
2023-04-13T04:41:37.554Z,3.47
2023-04-13T04:44:08.157Z,7.55
2023-04-13T04:46:38.518Z,7.40
2023-04-13T04:49:05.302Z,6.90
2023-04-13T04:51:32.217Z,7.97
2023-04-13T04:54:02.073Z,9.18
2023-04-13T04:56:29.030Z,7.85
2023-04-13T04:58:56.009Z,7.15
2023-04-13T05:01:26.529Z,6.45
2023-04-13T05:03:53.725Z,7.17
2023-04-13T05:06:20.486Z,5.07
2023-04-13T05:08:47.229Z,8.88
2023-04-13T05:11:14.122Z,5.50
2023-04-13T05:13:41.027Z,5.85
2023-04-13T05:16:08.291Z,7.03
2023-04-13T05:18:45.677Z,9.40
2023-04-13T05:21:14.134Z,7.70
2023-04-13T05:23:42.128Z,14.85
2023-04-13T05:26:12.727Z,13.43
2023-04-13T05:28:39.699Z,7.82
2023-04-13T05:31:08.867Z,13.98
2023-04-13T05:33:35.950Z,12.80
2023-04-13T05:36:04.532Z,12.23
2023-04-13T05:38:31.731Z,9.63
2023-04-13T05:40:58.748Z,11.40
2023-04-13T05:43:25.906Z,12.93
2023-04-13T05:45:52.650Z,12.23
2023-04-13T05:48:19.398Z,20.48
2023-04-13T05:50:46.294Z,13.02
2023-04-13T05:53:13.093Z,10.18
2023-04-13T05:55:42.242Z,14.35
2023-04-13T05:58:11.021Z,13.85
2023-04-13T06:00:38.778Z,12.68
2023-04-13T06:03:06.958Z,17.42
2023-04-13T06:05:35.470Z,13.10
2023-04-13T06:08:02.529Z,12.88
2023-04-13T06:10:29.458Z,16.17
2023-04-13T06:12:56.411Z,9.75
2023-04-13T06:15:23.351Z,6.25
2023-04-13T06:17:53.355Z,12.93
2023-04-13T06:20:21.471Z,10.60
2023-04-13T06:22:48.625Z,18.35
2023-04-13T06:25:16.417Z,19.42
2023-04-13T06:27:43.940Z,14.02
2023-04-13T06:30:11.899Z,16.25
2023-04-13T06:32:38.954Z,19.45
2023-04-13T06:35:06.391Z,14.90
2023-04-13T06:37:35.682Z,19.90
2023-04-13T06:40:15.809Z,13.80
2023-04-13T06:42:43.552Z,17.75
2023-04-13T06:45:12.055Z,13.98
2023-04-13T06:47:42.802Z,17.52
2023-04-13T06:50:11.518Z,16.83
2023-04-13T06:52:38.249Z,18.20
2023-04-13T06:55:05.902Z,19.92
2023-04-13T06:57:32.931Z,12.90
2023-04-13T06:59:59.783Z,21.42
2023-04-13T07:02:27.250Z,13.55
2023-04-13T07:04:54.363Z,19.27
2023-04-13T07:07:21.323Z,22.38
2023-04-13T07:09:48.074Z,21.17
2023-04-13T07:12:14.905Z,12.88
2023-04-13T07:14:42.276Z,20.83
2023-04-13T07:17:11.271Z,16.63
2023-04-13T07:19:43.621Z,12.95
2023-04-13T07:22:10.356Z,19.67
2023-04-13T07:24:37.131Z,22.65
2023-04-13T07:27:03.836Z,14.80
2023-04-13T07:29:30.769Z,17.25
2023-04-13T07:32:02.835Z,17.23
2023-04-13T07:34:30.117Z,17.02
2023-04-13T07:36:56.857Z,14.02
2023-04-13T07:39:23.624Z,14.35
2023-04-13T07:41:50.347Z,20.40
2023-04-13T07:44:17.541Z,15.63
2023-04-13T07:46:44.436Z,12.02
2023-04-13T07:49:11.226Z,15.15
2023-04-13T07:51:38.051Z,22.15
2023-04-13T07:54:04.994Z,16.30
2023-04-13T07:56:31.735Z,13.73
2023-04-13T07:58:58.652Z,17.23
2023-04-13T08:01:26.340Z,12.65
2023-04-13T08:03:53.417Z,17.90
2023-04-13T08:06:23.420Z,12.38
2023-04-13T08:08:50.170Z,22.27
2023-04-13T08:11:16.887Z,20.98
2023-04-13T08:13:43.715Z,16.58
2023-04-13T08:16:11.253Z,17.45
2023-04-13T08:18:38.399Z,13.75
2023-04-13T08:21:11.245Z,15.98
2023-04-13T08:23:41.721Z,10.13
2023-04-13T08:26:16.151Z,14.77
2023-04-13T08:28:42.877Z,16.42
2023-04-13T08:31:09.603Z,13.93
2023-04-13T08:33:36.276Z,15.07
2023-04-13T08:36:03.164Z,16.98
2023-04-13T08:38:29.894Z,13.90
2023-04-13T08:40:57.119Z,23.15
2023-04-13T08:43:23.886Z,18.13
2023-04-13T08:45:51.041Z,15.48
2023-04-13T08:48:19.358Z,16.50
2023-04-13T08:50:47.557Z,17.30
2023-04-13T08:53:18.117Z,14.35
2023-04-13T08:55:45.971Z,13.82
2023-04-13T08:58:14.777Z,13.55
2023-04-13T09:00:43.256Z,14.27
2023-04-13T09:03:14.593Z,19.25
2023-04-13T09:05:42.530Z,9.70
2023-04-13T09:08:11.454Z,16.63
2023-04-13T09:10:38.223Z,16.55
2023-04-13T09:13:05.352Z,19.77
2023-04-13T09:15:32.893Z,19.85
2023-04-13T09:18:12.810Z,16.88
2023-04-13T09:20:40.631Z,16.55
2023-04-13T09:23:17.059Z,14.38
2023-04-13T09:25:46.851Z,17.10
2023-04-13T09:28:18.132Z,20.83
2023-04-13T09:30:44.991Z,16.40
2023-04-13T09:33:13.405Z,12.90
2023-04-13T09:35:40.148Z,14.23
2023-04-13T09:38:08.334Z,22.75
2023-04-13T09:40:38.415Z,15.95
2023-04-13T09:43:07.850Z,16.88
2023-04-13T09:45:39.797Z,16.15
2023-04-13T09:48:23.050Z,13.07
2023-04-13T09:51:05.479Z,16.52
2023-04-13T09:53:47.269Z,14.68
2023-04-13T09:58:45.451Z,18.20
2023-04-13T10:01:13.140Z,18.35
2023-04-13T10:03:40.026Z,20.42
2023-04-13T10:06:08.205Z,16.20
2023-04-13T10:08:38.849Z,15.45
2023-04-13T10:11:11.098Z,18.27
2023-04-13T10:13:43.616Z,13.70
2023-04-13T10:16:19.288Z,14.07
2023-04-13T10:18:48.856Z,15.82
2023-04-13T10:21:16.816Z,15.98
2023-04-13T10:23:43.994Z,14.32
2023-04-13T10:26:10.952Z,14.55
2023-04-13T10:28:48.296Z,15.63
2023-04-13T10:31:15.127Z,15.02
2023-04-13T10:33:49.757Z,13.88
2023-04-13T10:36:17.366Z,17.25
2023-04-13T10:38:47.470Z,11.90
2023-04-13T10:41:24.899Z,14.50
2023-04-13T10:44:02.217Z,13.82
2023-04-13T10:46:29.307Z,17.25
2023-04-13T10:48:59.245Z,13.32
2023-04-13T10:51:47.125Z,18.88
2023-04-13T10:54:14.485Z,15.95
2023-04-13T10:56:41.253Z,17.30
2023-04-13T10:59:08.248Z,19.08
2023-04-13T11:01:35.796Z,13.90
2023-04-13T11:04:09.876Z,17.98
2023-04-13T11:06:41.125Z,13.50
2023-04-13T11:09:11.531Z,18.10
2023-04-13T11:11:41.927Z,18.95
2023-04-13T11:14:08.663Z,20.02
2023-04-13T11:16:45.514Z,18.98
2023-04-13T11:19:12.388Z,15.15
2023-04-13T11:21:39.089Z,16.05
2023-04-13T11:24:06.010Z,16.33
2023-04-13T11:26:34.230Z,19.85
2023-04-13T11:29:03.534Z,17.38
2023-04-13T11:31:40.858Z,15.00
2023-04-13T11:34:11.408Z,14.13
2023-04-13T11:36:42.187Z,17.92
2023-04-13T11:39:10.623Z,15.38
2023-04-13T11:41:41.935Z,12.35
2023-04-13T11:44:11.268Z,12.80
2023-04-13T11:46:38.265Z,14.82
2023-04-13T11:49:05.185Z,12.68
2023-04-13T11:51:33.053Z,11.05
2023-04-13T11:54:01.164Z,13.00
2023-04-13T11:56:28.736Z,8.93
2023-04-13T11:58:55.666Z,13.57
2023-04-13T12:01:27.171Z,19.02
2023-04-13T12:04:14.980Z,16.38
2023-04-13T12:06:45.908Z,13.05
2023-04-13T12:09:17.332Z,18.02
2023-04-13T12:11:52.142Z,14.50
2023-04-13T12:17:06.266Z,11.60
2023-04-13T12:19:45.980Z,14.45
2023-04-13T12:22:14.653Z,16.48
2023-04-13T12:24:42.842Z,13.50
2023-04-13T12:27:18.325Z,10.90
2023-04-13T12:29:45.997Z,15.80
2023-04-13T12:32:15.154Z,14.90
2023-04-13T12:34:43.051Z,12.63
2023-04-13T12:37:11.272Z,11.82
2023-04-13T12:39:38.218Z,12.82
2023-04-13T12:42:05.149Z,11.32
2023-04-13T12:44:33.740Z,11.93
2023-04-13T12:47:01.638Z,10.35
2023-04-13T12:49:28.553Z,10.77
2023-04-13T12:51:55.514Z,16.45
2023-04-13T12:54:22.188Z,17.15
2023-04-13T12:56:48.997Z,14.65
2023-04-13T12:59:16.650Z,19.77
2023-04-13T13:01:43.492Z,11.77
2023-04-13T13:04:10.397Z,11.10
2023-04-13T13:06:37.173Z,17.27
2023-04-13T13:09:03.941Z,11.43
2023-04-13T13:11:31.342Z,17.25
2023-04-13T13:13:58.054Z,17.67
2023-04-13T13:16:24.813Z,10.25
2023-04-13T13:18:52.303Z,12.20
2023-04-13T13:21:19.612Z,14.07
2023-04-13T13:23:46.512Z,10.95
2023-04-13T13:26:23.736Z,10.32
2023-04-13T13:28:52.056Z,12.63
2023-04-13T13:31:19.497Z,14.23
2023-04-13T13:33:46.668Z,11.25
2023-04-13T13:36:14.344Z,9.02
2023-04-13T13:38:42.821Z,13.23
2023-04-13T13:41:09.795Z,10.45
2023-04-13T13:43:36.503Z,7.60
2023-04-13T13:46:05.525Z,10.75
2023-04-13T13:48:32.419Z,12.95
2023-04-13T13:50:59.281Z,12.15
2023-04-13T13:53:26.442Z,13.80
2023-04-13T13:55:53.636Z,12.27
2023-04-13T13:58:20.572Z,11.38
2023-04-13T14:00:47.400Z,11.38
2023-04-13T14:03:15.403Z,13.93
2023-04-13T14:05:45.703Z,11.15
2023-04-13T14:08:12.499Z,13.52
2023-04-13T14:10:39.663Z,14.77
2023-04-13T14:13:06.479Z,16.02
2023-04-13T14:15:33.457Z,13.13
2023-04-13T14:18:09.155Z,18.55
2023-04-13T14:20:38.835Z,12.10
2023-04-13T14:23:06.409Z,14.63
2023-04-13T14:25:33.179Z,14.18
2023-04-13T14:28:00.065Z,18.45
2023-04-13T14:30:28.129Z,14.18
2023-04-13T14:32:56.239Z,12.95
2023-04-13T14:35:23.646Z,13.07
2023-04-13T14:37:50.407Z,15.70
2023-04-13T14:40:21.701Z,15.88
2023-04-13T14:42:50.811Z,14.30
2023-04-13T14:45:17.737Z,13.68
2023-04-13T14:47:44.589Z,14.82
2023-04-13T14:50:12.078Z,14.07
2023-04-13T14:52:39.802Z,13.88
2023-04-13T14:55:06.960Z,12.55
2023-04-13T14:57:33.773Z,13.10
2023-04-13T15:00:00.590Z,12.35
2023-04-13T15:02:30.891Z,14.38
2023-04-13T15:04:58.332Z,15.77
2023-04-13T15:07:29.650Z,17.33
2023-04-13T15:09:56.950Z,9.27
2023-04-13T15:12:23.689Z,13.93
2023-04-13T15:14:51.076Z,14.02
2023-04-13T15:17:17.904Z,8.65
2023-04-13T15:19:44.625Z,13.93
2023-04-13T15:22:11.368Z,10.40
2023-04-13T15:24:38.185Z,15.82
2023-04-13T15:27:05.053Z,12.75
2023-04-13T15:29:31.962Z,13.27
2023-04-13T15:31:59.400Z,18.92
2023-04-13T15:34:27.637Z,15.40
2023-04-13T15:36:56.946Z,16.15
2023-04-13T15:39:23.665Z,14.45
2023-04-13T15:41:52.615Z,11.68
2023-04-13T15:44:19.456Z,13.45
2023-04-13T15:46:48.066Z,14.20
2023-04-13T15:49:14.933Z,11.85
2023-04-13T15:51:41.668Z,17.77
2023-04-13T15:54:08.397Z,11.27
2023-04-13T15:56:35.510Z,11.30
2023-04-13T15:59:02.544Z,10.93
2023-04-13T16:01:44.578Z,13.82
2023-04-13T16:04:11.903Z,12.35
2023-04-13T16:06:38.662Z,12.70
2023-04-13T16:09:05.522Z,10.05
2023-04-13T16:11:32.423Z,14.35
2023-04-13T16:14:06.917Z,12.90
2023-04-13T16:16:53.516Z,11.73
2023-04-13T16:19:20.995Z,15.10
2023-04-13T16:21:50.818Z,12.93
2023-04-13T16:24:20.084Z,16.77
2023-04-13T16:26:47.140Z,13.57
2023-04-13T16:29:13.931Z,11.13
2023-04-13T16:31:44.600Z,13.93
2023-04-13T16:34:24.785Z,13.95
2023-04-13T16:36:53.088Z,15.57
2023-04-13T16:39:21.061Z,16.10
2023-04-13T16:41:47.734Z,18.00
2023-04-13T16:44:14.469Z,15.32
2023-04-13T16:46:41.375Z,14.38
2023-04-13T16:49:08.147Z,10.48
2023-04-13T16:51:34.942Z,17.15
2023-04-13T16:54:04.019Z,11.20
2023-04-13T16:56:30.730Z,13.38
2023-04-13T16:58:57.851Z,16.02
2023-04-13T17:01:25.575Z,13.48
2023-04-13T17:03:53.388Z,16.85
2023-04-13T17:06:21.122Z,15.95
2023-04-13T17:08:48.099Z,16.63
2023-04-13T17:11:14.869Z,17.23
2023-04-13T17:13:41.712Z,15.40
2023-04-13T17:16:08.834Z,13.55
2023-04-13T17:18:35.744Z,13.43
2023-04-13T17:21:02.461Z,16.13
2023-04-13T17:23:29.294Z,17.90
2023-04-13T17:25:56.723Z,18.98
2023-04-13T17:28:24.478Z,17.90
2023-04-13T17:30:51.484Z,15.32
2023-04-13T17:33:18.711Z,18.83
2023-04-13T17:35:45.492Z,15.30
2023-04-13T17:38:12.311Z,19.38
2023-04-13T17:40:39.023Z,14.93
2023-04-13T17:43:08.303Z,17.05
2023-04-13T17:45:35.113Z,12.82
2023-04-13T17:48:02.328Z,12.93
2023-04-13T17:50:31.253Z,18.13
2023-04-13T17:52:58.121Z,13.07
2023-04-13T17:55:24.851Z,12.80
2023-04-13T17:57:51.553Z,16.00
2023-04-13T18:00:19.271Z,16.30
2023-04-13T18:02:49.289Z,17.42
2023-04-13T18:05:18.163Z,13.43
2023-04-13T18:07:45.001Z,20.15
2023-04-13T18:10:11.891Z,14.38
2023-04-13T18:12:41.446Z,14.73
2023-04-13T18:15:08.896Z,16.67
2023-04-13T18:17:38.943Z,15.60
2023-04-13T18:20:06.554Z,13.43
2023-04-13T18:22:33.429Z,16.90
2023-04-13T18:25:00.458Z,14.85
2023-04-13T18:27:27.655Z,20.35
2023-04-13T18:29:57.863Z,19.48
2023-04-13T18:32:24.570Z,19.00
2023-04-13T18:34:51.387Z,22.40
2023-04-13T18:37:18.196Z,21.42
2023-04-13T18:39:45.140Z,17.70
2023-04-13T18:42:11.922Z,20.33
2023-04-13T18:44:38.670Z,16.27
2023-04-13T18:47:05.604Z,18.05
2023-04-13T18:49:32.466Z,18.60
2023-04-13T18:51:59.411Z,17.50
2023-04-13T18:54:26.161Z,17.83
2023-04-13T18:56:52.936Z,20.38
2023-04-13T18:59:19.634Z,14.50
2023-04-13T19:01:46.986Z,18.13
2023-04-13T19:04:14.116Z,17.85
2023-04-13T19:06:41.113Z,12.23
2023-04-13T19:09:08.315Z,12.73
2023-04-13T19:11:47.572Z,16.70
2023-04-13T19:14:14.510Z,13.60
2023-04-13T19:16:41.568Z,12.95
2023-04-13T19:19:08.801Z,15.27
2023-04-13T19:21:35.633Z,14.20
2023-04-13T19:24:02.355Z,12.05
2023-04-13T19:26:29.442Z,10.00
2023-04-13T19:28:56.206Z,11.82
2023-04-13T19:31:23.252Z,12.30
2023-04-13T19:33:51.503Z,11.07
2023-04-13T19:36:18.305Z,8.77
2023-04-13T19:38:45.568Z,15.82
2023-04-13T19:41:12.799Z,8.77
2023-04-13T19:43:39.713Z,10.00
2023-04-13T19:46:06.503Z,6.65
2023-04-13T19:48:33.233Z,7.95
2023-04-13T19:50:59.987Z,8.32
2023-04-13T19:53:26.638Z,9.00
2023-04-13T19:55:53.440Z,12.98
2023-04-13T19:58:20.130Z,8.60
2023-04-13T20:00:47.340Z,7.97
2023-04-13T20:03:14.334Z,10.25
2023-04-13T20:05:41.209Z,6.43
2023-04-13T20:08:07.939Z,12.43
2023-04-13T20:10:34.745Z,10.05
2023-04-13T20:13:01.486Z,9.45
2023-04-13T20:15:31.033Z,11.32
2023-04-13T20:17:57.880Z,12.27
2023-04-13T20:20:24.668Z,8.73
2023-04-13T20:22:51.387Z,10.25
2023-04-13T20:25:18.132Z,10.60
2023-04-13T20:27:45.629Z,10.50
2023-04-13T20:30:12.772Z,14.60
2023-04-13T20:32:39.753Z,14.60
2023-04-13T20:35:06.875Z,10.75
2023-04-13T20:37:33.628Z,14.50
2023-04-13T20:40:00.677Z,13.43
2023-04-13T20:42:29.650Z,13.15
2023-04-13T20:45:00.036Z,12.00
2023-04-13T20:47:28.786Z,12.55
2023-04-13T20:49:57.677Z,14.40
2023-04-13T20:52:27.211Z,14.10
2023-04-13T20:54:57.129Z,10.32
2023-04-13T20:57:23.836Z,16.70
2023-04-13T20:59:52.063Z,18.75
2023-04-13T21:02:20.470Z,16.20
2023-04-13T21:04:47.354Z,15.52
2023-04-13T21:07:15.438Z,13.30
2023-04-13T21:09:42.431Z,15.30
2023-04-13T21:12:09.152Z,18.75
2023-04-13T21:14:36.077Z,12.77
2023-04-13T21:17:02.890Z,10.70
2023-04-13T21:19:29.766Z,17.80
2023-04-13T21:21:57.446Z,21.13
2023-04-13T21:24:24.476Z,22.17
2023-04-13T21:26:51.274Z,21.90
2023-04-13T21:29:19.993Z,19.00
2023-04-13T21:31:47.685Z,16.30
2023-04-13T21:34:14.750Z,15.45
2023-04-13T21:39:14.141Z,14.98
2023-04-13T21:41:41.490Z,16.88
2023-04-13T21:44:16.204Z,15.02
2023-04-13T21:46:53.162Z,15.77
2023-04-13T21:49:19.914Z,15.80
2023-04-13T21:51:46.650Z,12.98
2023-04-13T21:54:13.433Z,11.13
2023-04-13T21:56:40.119Z,15.07
2023-04-13T21:59:06.869Z,14.95
2023-04-13T22:01:33.639Z,13.07
2023-04-13T22:04:00.806Z,14.43
2023-04-13T22:06:29.628Z,13.10
2023-04-13T22:08:56.318Z,12.77
2023-04-13T22:11:23.064Z,12.43
2023-04-13T22:13:49.772Z,9.35
2023-04-13T22:16:16.864Z,14.27
2023-04-13T22:18:43.606Z,13.73
2023-04-13T22:21:10.497Z,14.43
2023-04-13T22:23:37.167Z,12.88
2023-04-13T22:26:04.128Z,18.77
2023-04-13T22:28:31.987Z,10.07
2023-04-13T22:31:06.979Z,14.95
2023-04-13T22:33:36.146Z,16.83
2023-04-13T22:36:04.131Z,9.68
2023-04-13T22:38:30.984Z,13.75
2023-04-13T22:40:58.262Z,14.32
2023-04-13T22:43:25.208Z,12.05
2023-04-13T22:45:58.522Z,16.75
2023-04-13T22:48:25.786Z,13.38
2023-04-13T22:50:52.622Z,15.45
2023-04-13T22:53:19.436Z,14.23
2023-04-13T22:55:46.481Z,14.55
2023-04-13T22:58:13.180Z,21.70
2023-04-13T23:00:39.932Z,13.43
2023-04-13T23:03:07.371Z,16.23
2023-04-13T23:05:35.465Z,16.50
2023-04-13T23:08:02.190Z,16.55
2023-04-13T23:10:31.486Z,14.23
2023-04-13T23:12:58.882Z,15.88
2023-04-13T23:15:25.730Z,13.13
2023-04-13T23:17:56.310Z,15.30
2023-04-13T23:20:24.050Z,24.27
2023-04-13T23:22:50.716Z,20.08
2023-04-13T23:25:17.568Z,18.13
2023-04-13T23:27:44.424Z,19.05
2023-04-13T23:30:11.589Z,16.08
2023-04-13T23:32:38.370Z,14.63
2023-04-13T23:35:06.004Z,25.17
2023-04-13T23:37:32.828Z,20.67
2023-04-13T23:39:59.709Z,15.77
2023-04-13T23:42:26.504Z,14.15
2023-04-13T23:44:53.237Z,15.65
2023-04-13T23:47:20.020Z,13.10
2023-04-13T23:49:46.848Z,15.25
2023-04-13T23:52:13.571Z,20.05
2023-04-13T23:54:40.427Z,13.18
2023-04-13T23:57:07.233Z,19.20
2023-04-13T23:59:33.947Z,21.17
